Time;durP1;ratioP1;P1;durP2;ratioP2;P2;SDS_P1;SDS_P2;PMS_P1;PMS_P2;Temp;Humidity;BMP_temperature;BMP_pressure;BME280_temperature;BME280_humidity;BME280_pressure;Samples;Min_cycle;Max_cycle;Signal;HPM_P1;HPM_P2
2022/06/22 00:00:01;;;;;;;2.60;1.40;;;24.50;53.00;;;;;;220990;1267;22542;-49
2022/06/22 00:05:38;;;;;;;2.60;1.20;;;24.50;53.00;;;;;;220978;1268;22543;-49
2022/06/22 00:10:50;;;;;;;2.20;1.50;;;24.50;53.00;;;;;;220777;1268;24409;-48
2022/06/22 00:16:00;;;;;;;;;;;24.40;53.20;;;;;;220785;1267;22531;-50
2022/06/22 00:21:24;;;;;;;2.60;1.40;;;24.40;52.90;;;;;;220797;1268;22786;-49
2022/06/22 00:26:46;;;;;;;2.20;1.40;;;24.40;53.30;;;;;;220793;1268;24249;-52
2022/06/22 00:31:50;;;;;;;2.90;1.50;;;24.40;53.00;;;;;;220827;1268;22549;-50
2022/06/22 00:37:17;;;;;;;3.50;1.60;;;24.40;53.00;;;;;;220911;1268;22553;-48
2022/06/22 00:42:52;;;;;;;2.90;1.50;;;24.30;53.00;;;;;;220641;1268;25353;-47
2022/06/22 00:48:03;;;;;;;2.00;1.20;;;24.30;53.00;;;;;;220598;1268;24208;-48
2022/06/22 00:53:37;;;;;;;2.60;1.40;;;24.30;53.00;;;;;;220635;1268;25285;-49
2022/06/22 00:58:56;;;;;;;2.40;1.60;;;24.30;53.00;;;;;;220405;1268;22810;-49
2022/06/22 01:04:30;;;;;;;1.90;1.30;;;24.30;53.00;;;;;;221014;1270;22545;-50
2022/06/22 01:09:47;;;;;;;4.50;1.70;;;24.30;53.00;;;;;;220772;1268;25320;-48
2022/06/22 01:15:12;;;;;;;2.30;1.40;;;24.30;53.30;;;;;;220595;1268;24412;-49
2022/06/22 01:21:09;;;;;;;2.70;1.60;;;24.30;53.10;;;;;;213997;1268;8371760;-47
2022/06/22 01:26:41;;;;;;;3.00;1.50;;;24.20;53.00;;;;;;221039;1268;22565;-46
2022/06/22 01:32:18;;;;;;;2.30;1.30;;;24.20;53.00;;;;;;221066;1268;24296;-48
2022/06/22 01:37:50;;;;;;;2.50;1.60;;;24.20;52.90;;;;;;220649;1268;22597;-48
2022/06/22 01:43:02;;;;;;;2.80;1.40;;;24.20;53.00;;;;;;220663;1268;25498;-49
2022/06/22 01:48:10;;;;;;;2.30;1.30;;;24.20;52.90;;;;;;220606;1267;24405;-48
2022/06/22 01:53:18;;;;;;;2.40;1.50;;;24.20;53.00;;;;;;220879;1268;22539;-50
2022/06/22 01:58:20;;;;;;;2.50;1.40;;;24.20;53.00;;;;;;220767;1268;24414;-47
2022/06/22 02:03:32;;;;;;;2.10;1.30;;;24.10;53.00;;;;;;221099;1268;22561;-48
2022/06/22 02:08:40;;;;;;;3.90;1.70;;;24.10;53.00;;;;;;220362;1267;24524;-49
2022/06/22 02:13:53;;;;;;;4.30;1.60;;;24.10;53.00;;;;;;220588;1267;24257;-49
2022/06/22 02:18:58;;;;;;;2.80;1.40;;;24.10;53.00;;;;;;220727;1269;22599;-47
2022/06/22 02:24:16;;;;;;;5.70;2.00;;;24.10;53.00;;;;;;220319;1267;24421;-51
2022/06/22 02:29:22;;;;;;;3.90;1.60;;;24.10;53.60;;;;;;220802;1268;24243;-52
2022/06/22 02:34:25;;;;;;;3.20;1.60;;;24.10;53.00;;;;;;220829;1268;23166;-52
2022/06/22 02:39:30;;;;;;;2.80;1.50;;;24.10;53.00;;;;;;221098;1270;25580;-49
2022/06/22 02:44:35;;;;;;;3.70;1.70;;;24.00;52.90;;;;;;220749;1267;24299;-51
2022/06/22 02:49:41;;;;;;;4.80;1.50;;;24.00;52.90;;;;;;220522;1268;22535;-50
2022/06/22 02:54:48;;;;;;;5.20;1.90;;;24.00;52.90;;;;;;220647;1268;24444;-48
2022/06/22 02:59:59;;;;;;;2.90;1.50;;;24.00;52.90;;;;;;220644;1268;24305;-51
2022/06/22 03:05:05;;;;;;;3.40;1.70;;;24.00;52.90;;;;;;220576;1270;22602;-50
2022/06/22 03:10:28;;;;;;;2.50;1.60;;;24.00;52.90;;;;;;220747;1268;22557;-52
2022/06/22 03:15:36;;;;;;;2.30;1.50;;;24.00;52.90;;;;;;220789;1268;24240;-47
2022/06/22 03:20:48;;;;;;;3.00;1.40;;;24.00;52.90;;;;;;220896;1268;24262;-51
2022/06/22 03:26:25;;;;;;;4.30;1.70;;;24.00;52.90;;;;;;220416;1268;22560;-52
2022/06/22 03:31:42;;;;;;;2.90;1.30;;;23.90;52.90;;;;;;219326;1269;24274;-50
2022/06/22 03:36:55;;;;;;;3.40;1.40;;;23.90;53.00;;;;;;220860;1271;25579;-51
2022/06/22 03:42:04;;;;;;;2.30;1.50;;;23.90;53.30;;;;;;221066;1268;22579;-54
2022/06/22 03:47:32;;;;;;;2.30;1.40;;;23.90;53.00;;;;;;221039;1270;22665;-56
2022/06/22 03:53:12;;;;;;;2.90;1.40;;;23.90;53.00;;;;;;220960;1270;22545;-48
2022/06/22 03:58:16;;;;;;;2.20;1.30;;;23.90;53.00;;;;;;220793;1268;25446;-49
2022/06/22 04:03:19;;;;;;;3.70;1.50;;;23.90;53.50;;;;;;221011;1270;25240;-49
2022/06/22 04:08:28;;;;;;;3.20;1.60;;;23.90;53.00;;;;;;220809;1268;24085;-48
2022/06/22 04:13:45;;;;;;;3.00;1.30;;;23.90;53.30;;;;;;220866;1269;22631;-52
2022/06/22 04:18:57;;;;;;;2.00;1.40;;;23.90;53.00;;;;;;220748;1268;22538;-48
2022/06/22 04:24:11;;;;;;;3.30;1.50;;;23.90;53.10;;;;;;220334;1268;22557;-48
2022/06/22 04:29:16;;;;;;;2.30;1.30;;;23.90;53.00;;;;;;220536;1268;24365;-49
2022/06/22 04:34:45;;;;;;;3.20;1.60;;;23.80;52.90;;;;;;221078;1268;24479;-53
2022/06/22 04:39:51;;;;;;;2.60;1.40;;;23.80;53.00;;;;;;221023;1269;22567;-48
2022/06/22 04:44:53;;;;;;;1.80;1.40;;;23.90;53.00;;;;;;220965;1268;24217;-47
2022/06/22 04:50:05;;;;;;;3.40;1.80;;;23.80;53.00;;;;;;220927;1269;25597;-47
2022/06/22 04:55:14;;;;;;;2.50;1.60;;;23.80;53.30;;;;;;220738;1268;24215;-49
2022/06/22 05:00:19;;;;;;;3.10;1.50;;;23.80;53.00;;;;;;220704;1268;25445;-47
2022/06/22 05:05:30;;;;;;;2.10;1.40;;;23.80;52.90;;;;;;220890;1268;25422;-49
2022/06/22 05:10:49;;;;;;;2.80;1.40;;;23.80;52.90;;;;;;221022;1268;22781;-46
2022/06/22 05:15:55;;;;;;;3.60;1.70;;;23.80;52.90;;;;;;220750;1270;24283;-49
2022/06/22 05:21:34;;;;;;;3.80;1.80;;;23.90;53.00;;;;;;220128;1268;24212;-50
2022/06/22 20:23:42;;;;;;;2.50;1.20;;;25.20;51.90;;;;;;220772;1268;22685;-49
2022/06/22 20:29:00;;;;;;;2.30;1.30;;;25.20;51.90;;;;;;220613;1268;24242;-49
2022/06/22 20:34:34;;;;;;;3.80;1.50;;;25.20;51.90;;;;;;220868;1268;22567;-48
2022/06/22 20:39:41;;;;;;;3.70;1.40;;;25.20;52.00;;;;;;220543;1268;24269;-48
2022/06/22 20:44:54;;;;;;;2.50;1.30;;;25.20;51.90;;;;;;220835;1268;22564;-49
2022/06/22 20:50:02;;;;;;;4.10;1.70;;;25.20;52.00;;;;;;220802;1269;23167;-51
2022/06/22 20:55:38;;;;;;;2.60;1.40;;;25.20;52.00;;;;;;220795;1268;24260;-48
2022/06/22 21:00:44;;;;;;;3.10;1.60;;;25.20;52.00;;;;;;220960;1268;22556;-49
2022/06/22 21:05:49;;;;;;;3.60;1.50;;;25.10;51.90;;;;;;220961;1268;22617;-51
2022/06/22 21:11:22;;;;;;;1.90;1.30;;;25.10;51.90;;;;;;220961;1268;22606;-50
2022/06/22 21:16:36;;;;;;;7.30;1.90;;;25.10;52.00;;;;;;221017;1268;22573;-47
2022/06/22 21:22:11;;;;;;;2.40;1.40;;;25.10;52.00;;;;;;220806;1268;22557;-51
2022/06/22 21:27:15;;;;;;;2.70;1.30;;;25.10;52.00;;;;;;220490;1268;25238;-48
2022/06/22 21:32:32;;;;;;;2.30;1.40;;;25.10;52.00;;;;;;220963;1268;25241;-48
2022/06/22 21:37:50;;;;;;;3.80;1.80;;;25.10;52.00;;;;;;220806;1268;25293;-48
2022/06/22 21:42:55;;;;;;;3.30;1.70;;;25.10;51.60;;;;;;220855;1268;24215;-50
2022/06/22 21:48:08;;;;;;;3.80;1.50;;;25.10;52.10;;;;;;220906;1268;22751;-55
2022/06/22 21:53:44;;;;;;;4.20;1.80;;;25.10;52.10;;;;;;220847;1268;24361;-51
2022/06/22 21:58:59;;;;;;;4.10;1.60;;;25.10;52.80;;;;;;220827;1268;22540;-50
2022/06/22 22:04:22;;;;;;;3.30;1.50;;;25.10;52.30;;;;;;220921;1268;25312;-50
2022/06/22 22:09:34;;;;;;;3.10;1.50;;;25.10;52.40;;;;;;221062;1268;22608;-48
2022/06/22 22:14:43;;;;;;;2.90;1.70;;;25.10;52.30;;;;;;220975;1265;25355;-51
2022/06/22 22:19:55;;;;;;;3.70;1.70;;;25.00;52.60;;;;;;220251;1267;22570;-49
2022/06/22 22:25:08;;;;;;;5.00;1.90;;;25.00;52.30;;;;;;220515;1268;24367;-51
2022/06/22 22:30:15;;;;;;;3.30;1.50;;;25.00;52.30;;;;;;220736;1268;22551;-49
2022/06/22 22:35:35;;;;;;;1.90;1.20;;;25.00;52.30;;;;;;220811;1268;22547;-51
2022/06/22 22:40:46;;;;;;;2.90;1.50;;;25.00;52.30;;;;;;220783;1268;22531;-49
2022/06/22 22:45:49;;;;;;;2.20;1.30;;;24.90;52.30;;;;;;220897;1268;22574;-52
2022/06/22 22:50:52;;;;;;;3.00;1.70;;;24.90;52.30;;;;;;221067;1271;22694;-50
2022/06/22 22:56:01;;;;;;;2.80;1.40;;;25.00;52.40;;;;;;220617;1268;24771;-51
2022/06/22 23:01:22;;;;;;;5.00;1.50;;;25.00;52.40;;;;;;220690;1268;22612;-49
2022/06/22 23:06:39;;;;;;;2.80;1.40;;;24.90;52.40;;;;;;220563;1267;22779;-47
2022/06/22 23:11:42;;;;;;;2.40;1.40;;;24.90;52.30;;;;;;220593;1267;22534;-49
2022/06/22 23:16:48;;;;;;;3.00;1.50;;;24.90;52.40;;;;;;220481;1268;22710;-47
2022/06/22 23:21:50;;;;;;;5.60;1.90;;;24.90;52.40;;;;;;220496;1268;22547;-50
2022/06/22 23:26:59;;;;;;;3.00;1.60;;;24.90;52.40;;;;;;220170;1268;24247;-51
2022/06/22 23:32:12;;;;;;;2.90;1.50;;;24.90;52.40;;;;;;220550;1268;22667;-53
2022/06/22 23:37:28;;;;;;;4.90;1.80;;;24.90;52.40;;;;;;220619;1269;25480;-48
2022/06/22 23:42:36;;;;;;;6.50;1.80;;;24.90;52.90;;;;;;220555;1268;22627;-50
2022/06/22 23:53:06;;;;;;;5.40;1.90;;;24.90;52.40;;;;;;220979;1268;22501;-50
2022/06/22 23:58:18;;;;;;;2.70;1.60;;;24.90;52.40;;;;;;220556;1268;24239;-48
